createdAt,value
2023-02-28T00:02:11.758Z,7.17
2023-02-28T00:07:00.159Z,10.63
2023-02-28T00:11:49.633Z,6.30
2023-02-28T00:16:36.809Z,6.13
2023-02-28T00:21:23.238Z,4.90
2023-02-28T00:26:12.150Z,6.60
2023-02-28T00:31:01.149Z,7.63
2023-02-28T00:35:47.926Z,6.33
2023-02-28T00:40:36.263Z,6.93
2023-02-28T00:45:24.826Z,6.67
2023-02-28T00:50:15.131Z,7.07
2023-02-28T00:55:00.002Z,6.33
2023-02-28T00:59:49.259Z,6.10
2023-02-28T01:04:35.948Z,8.03
2023-02-28T01:09:25.411Z,5.83
2023-02-28T01:14:14.433Z,7.80
2023-02-28T01:19:01.054Z,7.43
2023-02-28T01:23:52.187Z,8.07
2023-02-28T01:28:37.043Z,7.30
2023-02-28T01:33:27.554Z,6.83
2023-02-28T01:38:22.145Z,7.40
2023-02-28T01:43:31.344Z,6.97
2023-02-28T01:48:22.020Z,5.87
2023-02-28T01:53:13.020Z,6.03
2023-02-28T01:58:00.800Z,8.20
2023-02-28T02:02:46.684Z,7.07
2023-02-28T02:07:35.512Z,7.47
2023-02-28T02:12:36.924Z,6.73
2023-02-28T02:17:39.137Z,6.27
2023-02-28T02:23:03.408Z,7.13
2023-02-28T02:28:18.494Z,6.23
2023-02-28T02:33:27.640Z,6.47
2023-02-28T02:38:27.467Z,7.83
2023-02-28T02:43:22.172Z,8.87
2023-02-28T02:48:08.781Z,7.37
2023-02-28T02:52:56.928Z,8.37
2023-02-28T02:57:55.656Z,8.57
2023-02-28T03:02:51.217Z,6.70
2023-02-28T03:07:34.677Z,7.47
2023-02-28T03:12:22.511Z,7.80
2023-02-28T03:17:39.560Z,7.77
2023-02-28T03:22:50.636Z,7.30
2023-02-28T03:27:48.950Z,8.07
2023-02-28T03:32:43.066Z,8.80
2023-02-28T03:37:30.207Z,8.40
2023-02-28T03:42:17.233Z,8.43
2023-02-28T03:47:16.565Z,8.43
2023-02-28T03:52:09.123Z,8.57
2023-02-28T03:56:59.507Z,7.23
2023-02-28T04:01:46.172Z,8.13
2023-02-28T04:06:32.700Z,7.47
2023-02-28T04:11:23.716Z,8.17
2023-02-28T04:16:33.954Z,8.73
2023-02-28T04:21:28.011Z,10.07
2023-02-28T04:26:13.501Z,10.90
2023-02-28T04:31:03.376Z,10.00
2023-02-28T04:35:49.870Z,10.20
2023-02-28T04:40:38.160Z,8.27
2023-02-28T04:45:24.697Z,10.33
2023-02-28T04:50:18.994Z,9.97
2023-02-28T04:55:02.811Z,14.30
2023-02-28T04:59:48.626Z,12.00
2023-02-28T05:04:41.314Z,11.97
2023-02-28T05:09:26.216Z,11.03
2023-02-28T05:14:15.599Z,13.17
2023-02-28T05:19:02.120Z,12.07
2023-02-28T05:23:48.993Z,11.17
2023-02-28T05:28:37.423Z,11.07
2023-02-28T05:33:25.242Z,10.00
2023-02-28T05:38:18.683Z,12.63
2023-02-28T05:43:02.344Z,12.70
2023-02-28T05:47:50.444Z,11.00
2023-02-28T05:52:37.244Z,13.43
2023-02-28T05:57:29.938Z,16.27
2023-02-28T06:02:15.931Z,12.67
2023-02-28T06:07:02.805Z,13.73
2023-02-28T06:11:48.411Z,15.47
2023-02-28T06:16:41.357Z,13.40
2023-02-28T06:21:28.057Z,16.33
2023-02-28T06:26:13.679Z,16.97
2023-02-28T06:31:00.285Z,16.53
2023-02-28T06:35:53.701Z,16.00
2023-02-28T06:40:37.854Z,17.27
2023-02-28T06:45:27.277Z,13.90
2023-02-28T06:50:14.085Z,12.97
2023-02-28T06:55:02.208Z,15.30
2023-02-28T06:59:51.843Z,17.07
2023-02-28T07:04:41.590Z,16.57
2023-02-28T07:09:25.482Z,18.20
2023-02-28T07:14:12.152Z,14.23
2023-02-28T07:19:04.729Z,16.60
2023-02-28T07:23:49.709Z,14.27
2023-02-28T07:28:37.100Z,18.57
2023-02-28T07:33:24.927Z,17.67
2023-02-28T07:38:15.670Z,16.77
2023-02-28T07:43:03.783Z,15.80
2023-02-28T07:47:50.351Z,15.60
2023-02-28T07:52:38.187Z,13.23
2023-02-28T07:57:25.217Z,15.03
2023-02-28T08:02:18.497Z,12.80
2023-02-28T08:07:01.989Z,14.17
2023-02-28T08:11:51.160Z,12.83
2023-02-28T08:22:15.910Z,10.83
2023-02-28T08:27:00.254Z,9.13
2023-02-28T08:31:50.532Z,9.57
2023-02-28T08:36:37.483Z,10.87
2023-02-28T08:41:25.799Z,9.43
2023-02-28T08:46:15.320Z,12.53
2023-02-28T08:51:07.641Z,8.00
2023-02-28T08:56:06.701Z,8.53
2023-02-28T09:00:54.774Z,8.97
2023-02-28T09:05:40.685Z,11.80
2023-02-28T09:10:29.044Z,10.33
2023-02-28T09:15:21.658Z,7.30
2023-02-28T09:20:07.526Z,13.33
2023-02-28T09:24:55.952Z,8.67
2023-02-28T09:29:41.325Z,9.00
2023-02-28T09:34:31.936Z,7.53
2023-02-28T09:39:19.919Z,7.30
2023-02-28T09:44:09.301Z,9.23
2023-02-28T09:49:07.663Z,7.90
2023-02-28T09:54:01.953Z,7.63
2023-02-28T09:59:00.110Z,7.37
2023-02-28T10:04:21.216Z,6.87
2023-02-28T10:09:15.062Z,14.00
2023-02-28T10:14:12.665Z,18.50
2023-02-28T10:19:06.627Z,7.37
2023-02-28T10:23:51.986Z,8.47
2023-02-28T10:28:38.418Z,7.33
2023-02-28T10:33:30.199Z,9.97
2023-02-28T10:38:27.486Z,7.63
2023-02-28T10:43:22.376Z,8.03
2023-02-28T10:48:08.768Z,8.20
2023-02-28T10:52:55.461Z,13.93
2023-02-28T10:57:40.830Z,11.37
2023-02-28T11:07:24.269Z,10.40
2023-02-28T11:12:43.353Z,11.87
2023-02-28T11:17:58.721Z,9.03
2023-02-28T11:22:48.931Z,13.37
2023-02-28T11:27:53.264Z,10.93
2023-02-28T11:32:38.789Z,9.37
2023-02-28T11:37:26.006Z,8.53
2023-02-28T11:42:43.674Z,8.63
2023-02-28T11:47:48.913Z,9.67
2023-02-28T11:58:29.598Z,9.97
2023-02-28T12:03:47.683Z,8.07
2023-02-28T12:08:55.116Z,9.23
2023-02-28T12:13:55.185Z,12.13
2023-02-28T12:19:13.344Z,7.67
2023-02-28T12:24:24.216Z,7.93
2023-02-28T12:29:29.771Z,8.10
2023-02-28T12:34:25.666Z,7.33
2023-02-28T12:39:19.348Z,8.97
2023-02-28T12:44:10.280Z,11.23
2023-02-28T12:48:58.757Z,8.17
2023-02-28T12:53:56.724Z,7.97
2023-02-28T12:58:45.598Z,9.33
2023-02-28T13:03:54.154Z,10.47
2023-02-28T13:09:13.549Z,9.03
2023-02-28T13:14:02.463Z,11.37
2023-02-28T13:18:48.004Z,9.73
2023-02-28T13:24:20.038Z,9.43
2023-02-28T13:29:30.245Z,9.53
2023-02-28T13:34:18.398Z,9.97
2023-02-28T13:39:05.053Z,10.83
2023-02-28T13:44:09.838Z,10.70
2023-02-28T13:48:55.721Z,11.17
2023-02-28T13:54:02.164Z,9.50
2023-02-28T13:59:01.857Z,12.10
2023-02-28T14:04:19.648Z,9.40
2023-02-28T14:09:29.518Z,38.83
2023-02-28T14:14:52.071Z,12.27
2023-02-28T14:19:51.360Z,16.73
2023-02-28T14:25:07.569Z,14.20
2023-02-28T14:30:33.143Z,12.43
2023-02-28T14:35:38.983Z,10.87
2023-02-28T14:40:40.310Z,11.90
2023-02-28T14:45:29.540Z,11.90
2023-02-28T14:50:29.854Z,11.87
2023-02-28T14:55:21.221Z,11.50
2023-02-28T15:00:22.409Z,12.37
2023-02-28T15:05:31.153Z,10.83
2023-02-28T15:10:32.232Z,11.10
2023-02-28T15:15:18.763Z,13.43
2023-02-28T15:20:06.600Z,15.03
2023-02-28T15:24:55.997Z,15.10
2023-02-28T15:29:56.750Z,10.70
2023-02-28T15:35:20.864Z,12.13
2023-02-28T15:40:25.653Z,13.47
2023-02-28T15:45:29.679Z,14.20
2023-02-28T15:50:16.470Z,14.53
2023-02-28T15:55:01.042Z,13.47
2023-02-28T15:59:54.426Z,12.93
2023-02-28T16:04:39.504Z,15.10
2023-02-28T16:09:28.128Z,15.47
2023-02-28T16:14:18.451Z,14.33
2023-02-28T16:19:03.350Z,13.10
2023-02-28T16:23:48.691Z,15.47
2023-02-28T16:28:41.575Z,13.97
2023-02-28T16:33:25.159Z,13.97
2023-02-28T16:38:13.121Z,15.77
2023-02-28T16:43:02.139Z,15.47
2023-02-28T16:47:52.038Z,17.20
2023-02-28T16:52:37.471Z,16.57
2023-02-28T16:57:25.858Z,15.60
2023-02-28T17:02:15.462Z,13.77
2023-02-28T17:07:02.110Z,18.03
2023-02-28T17:11:48.480Z,17.10
2023-02-28T17:16:40.822Z,17.10
2023-02-28T17:21:24.332Z,16.27
2023-02-28T17:26:14.855Z,16.83
2023-02-28T17:31:01.312Z,16.97
2023-02-28T17:35:48.565Z,19.00
2023-02-28T17:40:41.456Z,17.10
2023-02-28T17:45:25.238Z,22.33
2023-02-28T17:50:17.770Z,24.33
2023-02-28T17:55:02.994Z,20.67
2023-02-28T17:59:48.532Z,21.20
2023-02-28T18:04:41.371Z,22.13
2023-02-28T18:09:25.281Z,18.57
2023-02-28T18:14:13.653Z,21.27
2023-02-28T18:19:03.271Z,18.23
2023-02-28T18:23:50.164Z,16.57
2023-02-28T18:28:42.435Z,17.30
2023-02-28T18:33:27.274Z,19.10
2023-02-28T18:38:15.069Z,20.10
2023-02-28T18:43:01.829Z,18.87
2023-02-28T18:47:51.251Z,20.23
2023-02-28T18:52:37.009Z,19.07
2023-02-28T18:57:30.218Z,20.30
2023-02-28T19:02:13.810Z,19.93
2023-02-28T19:07:03.306Z,22.93
2023-02-28T19:11:51.125Z,22.67
2023-02-28T19:16:36.998Z,26.20
2023-02-28T19:21:26.115Z,26.73
2023-02-28T19:26:14.852Z,28.83
2023-02-28T19:31:02.733Z,26.23
2023-02-28T19:35:49.637Z,23.70
2023-02-28T19:40:36.476Z,23.67
2023-02-28T19:45:23.849Z,26.27
2023-02-28T19:50:32.535Z,27.57
2023-02-28T19:55:16.193Z,23.67
2023-02-28T20:00:05.646Z,26.13
2023-02-28T20:05:09.912Z,23.37
2023-02-28T20:10:01.437Z,28.20
2023-02-28T20:14:45.555Z,29.50
2023-02-28T20:19:35.181Z,27.03
2023-02-28T20:24:23.357Z,27.00
2023-02-28T20:29:13.821Z,28.53
2023-02-28T20:33:57.698Z,27.10
2023-02-28T20:38:51.527Z,25.13
2023-02-28T20:44:08.234Z,29.00
2023-02-28T20:48:54.726Z,26.60
2023-02-28T20:53:41.379Z,26.43
2023-02-28T20:58:30.028Z,25.47
2023-02-28T21:03:18.166Z,26.40
2023-02-28T21:08:07.438Z,25.50
2023-02-28T21:12:59.139Z,27.17
2023-02-28T21:17:56.391Z,27.60
2023-02-28T21:22:50.358Z,27.20
2023-02-28T21:27:35.522Z,29.43
2023-02-28T21:32:22.187Z,26.80
2023-02-28T21:37:12.931Z,27.07
2023-02-28T21:41:57.641Z,27.50
2023-02-28T21:46:46.686Z,29.80
2023-02-28T21:51:34.209Z,30.13
2023-02-28T21:56:23.756Z,29.43
2023-02-28T22:01:12.359Z,28.03
2023-02-28T22:06:09.288Z,30.37
2023-02-28T22:11:06.973Z,28.53
2023-02-28T22:16:20.335Z,31.63
2023-02-28T22:21:38.395Z,32.27
2023-02-28T22:26:30.190Z,34.50
2023-02-28T22:31:30.757Z,35.47
2023-02-28T22:41:42.939Z,33.40
2023-02-28T22:47:01.845Z,32.53
2023-02-28T22:52:55.010Z,31.23
2023-02-28T23:09:14.740Z,32.20
2023-02-28T23:14:14.577Z,27.57
2023-02-28T23:19:07.370Z,29.90
2023-02-28T23:24:26.676Z,27.63
2023-02-28T23:29:57.234Z,27.57
2023-02-28T23:34:46.674Z,25.73
2023-02-28T23:40:24.723Z,29.00
2023-02-28T23:45:46.145Z,27.17
2023-02-28T23:51:32.093Z,28.60
2023-02-28T23:56:35.660Z,27.37
